Time;durP1;ratioP1;P1;durP2;ratioP2;P2;SDS_P1;SDS_P2;PMS_P1;PMS_P2;Temp;Humidity;BMP_temperature;BMP_pressure;BME280_temperature;BME280_humidity;BME280_pressure;Samples;Min_cycle;Max_cycle;Signal;HPM_P1;HPM_P2
2023/09/27 00:00:22;;;;;;;7.43;4.90;;;20.50;61.30;;;;;;5075483;28;20025;-67
2023/09/27 00:02:49;;;;;;;9.13;4.40;;;20.40;61.10;;;;;;5075116;28;20036;-67
2023/09/27 00:05:16;;;;;;;8.80;4.40;;;20.40;61.10;;;;;;5074988;28;20352;-64
2023/09/27 00:07:43;;;;;;;7.72;4.57;;;20.40;61.10;;;;;;5075397;28;20130;-66
2023/09/27 00:10:11;;;;;;;7.72;4.97;;;20.40;61.10;;;;;;5075387;28;20032;-65
2023/09/27 00:12:38;;;;;;;6.78;4.57;;;20.30;61.20;;;;;;5075047;28;20036;-64
2023/09/27 00:15:06;;;;;;;8.23;4.90;;;20.30;61.20;;;;;;5074952;28;20417;-67
2023/09/27 00:17:32;;;;;;;6.72;4.55;;;20.30;61.30;;;;;;5074902;28;20086;-67
2023/09/27 00:19:58;;;;;;;9.45;5.43;;;20.20;61.20;;;;;;5074982;28;20471;-67
2023/09/27 00:22:24;;;;;;;9.60;5.68;;;20.20;61.20;;;;;;5074657;28;20059;-64
2023/09/27 00:24:51;;;;;;;6.93;4.80;;;20.20;61.20;;;;;;5074837;28;20016;-66
2023/09/27 00:27:17;;;;;;;8.90;4.80;;;20.20;61.30;;;;;;5075462;28;20028;-66
2023/09/27 00:29:43;;;;;;;9.32;5.13;;;20.20;61.30;;;;;;5075193;28;20028;-67
2023/09/27 00:32:09;;;;;;;9.00;4.82;;;20.10;61.30;;;;;;5075134;28;20352;-64
2023/09/27 00:34:35;;;;;;;7.90;5.05;;;20.10;61.20;;;;;;5074787;28;20016;-67
2023/09/27 00:37:02;;;;;;;9.50;4.55;;;20.10;61.20;;;;;;5074642;28;20388;-66
2023/09/27 00:39:28;;;;;;;6.95;4.68;;;20.10;61.10;;;;;;5074761;28;20097;-68
2023/09/27 00:41:54;;;;;;;7.10;4.38;;;20.10;61.10;;;;;;5075355;28;20071;-67
2023/09/27 00:44:20;;;;;;;6.25;4.45;;;20.10;61.10;;;;;;5074734;28;20092;-67
2023/09/27 00:46:47;;;;;;;9.80;5.05;;;20.10;61.00;;;;;;5075005;28;20126;-67
2023/09/27 00:49:15;;;;;;;6.68;4.55;;;20.00;61.00;;;;;;5073876;28;20473;-67
2023/09/27 00:51:43;;;;;;;8.48;4.88;;;20.10;61.00;;;;;;5074736;28;20035;-66
2023/09/27 00:54:09;;;;;;;8.45;5.15;;;20.00;60.90;;;;;;5073795;28;20031;-66
2023/09/27 00:56:36;;;;;;;11.50;5.32;;;20.00;60.80;;;;;;5074837;28;20032;-66
2023/09/27 00:59:03;;;;;;;6.85;4.65;;;20.10;60.80;;;;;;5074712;28;20489;-65
2023/09/27 01:01:30;;;;;;;8.35;4.88;;;20.00;60.70;;;;;;5077240;28;20029;-66
2023/09/27 01:03:58;;;;;;;5.78;4.45;;;20.10;60.70;;;;;;5078008;28;20043;-68
2023/09/27 01:06:25;;;;;;;7.25;4.47;;;20.00;60.70;;;;;;5077488;28;20044;-65
2023/09/27 01:08:51;;;;;;;9.75;5.03;;;20.00;60.70;;;;;;5078516;28;20392;-65
2023/09/27 01:11:17;;;;;;;8.70;4.63;;;20.00;60.70;;;;;;5078005;28;20503;-65
2023/09/27 01:13:43;;;;;;;6.47;4.35;;;20.00;60.80;;;;;;5078496;28;20088;-64
2023/09/27 01:16:09;;;;;;;8.63;4.45;;;20.00;60.70;;;;;;5078033;28;20037;-67
2023/09/27 01:18:35;;;;;;;7.18;4.50;;;20.00;60.60;;;;;;5077893;28;20111;-64
2023/09/27 01:21:01;;;;;;;9.07;4.60;;;19.90;60.60;;;;;;5078911;28;20025;-68
2023/09/27 01:23:28;;;;;;;9.23;5.07;;;20.00;60.60;;;;;;5077736;28;20074;-67
2023/09/27 01:26:01;;;;;;;11.10;5.20;;;20.00;60.40;;;;;;5077677;28;20357;-66
2023/09/27 01:28:31;;;;;;;5.68;4.05;;;19.90;60.30;;;;;;5078023;28;20024;-64
2023/09/27 01:30:57;;;;;;;8.13;4.70;;;20.00;60.30;;;;;;5076654;28;20361;-67
2023/09/27 01:33:23;;;;;;;7.20;4.57;;;20.00;60.20;;;;;;5077517;28;20454;-65
2023/09/27 01:35:49;;;;;;;8.13;4.50;;;19.90;60.10;;;;;;5077305;28;20054;-67
2023/09/27 01:38:15;;;;;;;9.77;5.00;;;19.90;60.10;;;;;;5077386;28;20024;-66
2023/09/27 01:40:44;;;;;;;7.88;4.75;;;19.90;60.10;;;;;;5077740;28;20434;-65
2023/09/27 01:43:11;;;;;;;8.95;5.00;;;19.90;60.00;;;;;;5077418;28;20020;-65
2023/09/27 01:45:38;;;;;;;8.32;4.88;;;19.90;60.00;;;;;;5077246;28;20039;-67
2023/09/27 01:48:04;;;;;;;6.70;4.47;;;19.90;60.00;;;;;;5077358;28;20021;-66
2023/09/27 01:50:33;;;;;;;7.75;4.60;;;19.90;60.00;;;;;;5077280;28;20024;-66
2023/09/27 01:52:59;;;;;;;6.50;4.18;;;19.90;59.90;;;;;;5076383;28;20027;-65
2023/09/27 01:55:26;;;;;;;10.50;4.82;;;19.90;59.80;;;;;;5077198;28;20025;-67
2023/09/27 01:57:53;;;;;;;6.53;4.28;;;19.90;59.80;;;;;;5077157;28;20103;-66
2023/09/27 02:00:20;;;;;;;8.98;4.20;;;19.90;59.70;;;;;;5077335;28;20032;-66
2023/09/27 02:02:56;;;;;;;6.68;3.97;;;19.90;59.70;;;;;;5076201;28;20020;-64
2023/09/27 02:05:23;;;;;;;9.10;3.75;;;19.90;59.60;;;;;;5076659;28;20052;-67
2023/09/27 02:07:49;;;;;;;6.65;4.20;;;19.90;59.60;;;;;;5076917;28;20100;-66
2023/09/27 02:10:15;;;;;;;8.43;4.70;;;19.90;59.40;;;;;;5076676;28;20369;-65
2023/09/27 02:12:41;;;;;;;9.32;4.53;;;19.90;59.40;;;;;;5077089;28;20020;-65
2023/09/27 02:15:08;;;;;;;9.30;4.70;;;19.90;59.40;;;;;;5076708;28;20025;-65
2023/09/27 02:17:35;;;;;;;7.75;5.10;;;19.90;59.30;;;;;;5076573;28;20357;-65
2023/09/27 02:20:07;;;;;;;10.32;5.00;;;19.90;59.30;;;;;;5076949;28;20103;-65
2023/09/27 02:22:37;;;;;;;8.43;5.07;;;19.90;59.10;;;;;;5077473;28;20031;-64
2023/09/27 02:25:05;;;;;;;6.60;4.60;;;20.00;59.00;;;;;;5075645;28;20025;-66
2023/09/27 02:27:32;;;;;;;8.45;4.97;;;19.90;59.00;;;;;;5076818;28;20028;-64
2023/09/27 02:29:58;;;;;;;7.82;4.75;;;20.00;59.00;;;;;;5076762;28;20070;-67
2023/09/27 02:32:24;;;;;;;7.85;4.60;;;19.90;59.00;;;;;;5076419;28;20028;-67
2023/09/27 02:34:51;;;;;;;8.80;4.90;;;19.90;58.90;;;;;;5076318;28;20090;-66
2023/09/27 02:37:17;;;;;;;9.35;5.10;;;19.90;59.00;;;;;;5076214;28;20045;-66
2023/09/27 02:39:43;;;;;;;7.85;5.00;;;19.90;58.90;;;;;;5076287;28;20036;-66
2023/09/27 02:42:13;;;;;;;7.63;4.50;;;19.90;58.80;;;;;;5075666;28;20143;-66
2023/09/27 02:44:39;;;;;;;8.13;4.80;;;19.90;58.90;;;;;;5076400;28;20392;-66
2023/09/27 02:47:07;;;;;;;7.78;4.38;;;19.90;58.80;;;;;;5076680;28;20043;-65
2023/09/27 02:49:37;;;;;;;12.00;5.10;;;19.90;58.90;;;;;;5076371;28;20025;-67
2023/09/27 02:52:03;;;;;;;8.13;4.80;;;19.90;58.80;;;;;;5076058;28;20056;-67
2023/09/27 02:54:29;;;;;;;9.07;4.53;;;19.90;58.70;;;;;;5076335;28;20029;-67
2023/09/27 02:56:55;;;;;;;7.32;4.50;;;19.90;58.80;;;;;;5075884;28;20108;-67
2023/09/27 02:59:21;;;;;;;9.20;5.18;;;19.90;58.80;;;;;;5076477;28;20020;-67
2023/09/27 03:01:48;;;;;;;9.45;4.93;;;19.90;58.80;;;;;;5075895;28;20073;-67
2023/09/27 03:04:16;;;;;;;7.70;4.75;;;19.90;58.90;;;;;;5075765;28;20142;-64
2023/09/27 03:06:42;;;;;;;10.10;4.80;;;19.90;58.90;;;;;;5074871;28;20391;-66
2023/09/27 03:09:12;;;;;;;10.45;5.43;;;19.90;58.90;;;;;;5076038;28;20040;-65
2023/09/27 03:11:43;;;;;;;10.30;5.30;;;19.90;58.80;;;;;;5076304;28;20358;-65
2023/09/27 03:14:09;;;;;;;5.72;4.40;;;19.90;58.90;;;;;;5075899;28;20025;-66
2023/09/27 03:16:35;;;;;;;8.90;5.00;;;19.90;59.00;;;;;;5075018;28;20029;-66
2023/09/27 03:19:01;;;;;;;10.00;4.63;;;19.90;58.90;;;;;;5075919;28;20095;-68
2023/09/27 03:21:27;;;;;;;6.90;4.60;;;19.90;59.10;;;;;;5074648;28;20027;-66
2023/09/27 03:23:54;;;;;;;9.40;5.00;;;19.90;59.00;;;;;;5075017;28;20021;-65
2023/09/27 03:26:22;;;;;;;6.53;4.80;;;19.90;59.10;;;;;;5075804;28;20032;-66
2023/09/27 03:28:50;;;;;;;7.28;4.78;;;19.90;59.30;;;;;;5075793;28;20021;-65
2023/09/27 03:31:16;;;;;;;8.23;4.90;;;19.90;59.20;;;;;;5075404;28;20347;-66
2023/09/27 03:33:42;;;;;;;10.35;4.82;;;19.90;59.30;;;;;;5074487;28;20021;-66
2023/09/27 03:36:08;;;;;;;11.23;5.40;;;19.80;59.40;;;;;;5075183;28;20477;-66
2023/09/27 03:38:34;;;;;;;9.73;5.10;;;19.90;59.50;;;;;;5075665;28;20028;-64
2023/09/27 03:41:00;;;;;;;7.75;4.75;;;19.80;59.60;;;;;;5075321;28;20361;-65
2023/09/27 03:43:27;;;;;;;8.70;4.70;;;19.80;59.70;;;;;;5075637;28;20028;-67
2023/09/27 03:45:53;;;;;;;8.93;5.22;;;19.80;59.70;;;;;;5075204;28;20040;-67
2023/09/27 03:48:20;;;;;;;8.55;4.70;;;19.80;59.80;;;;;;5075847;28;20400;-66
2023/09/27 03:50:46;;;;;;;10.18;5.00;;;19.70;59.80;;;;;;5075319;28;20028;-67
2023/09/27 03:53:12;;;;;;;7.43;5.00;;;19.80;59.80;;;;;;5075480;28;20032;-66
2023/09/27 03:55:38;;;;;;;7.93;4.90;;;19.80;59.80;;;;;;5074141;28;20469;-65
2023/09/27 03:58:04;;;;;;;9.40;5.07;;;19.80;59.80;;;;;;5075476;28;20025;-66
2023/09/27 04:00:30;;;;;;;9.85;5.20;;;19.80;59.90;;;;;;5074254;28;20121;-67
2023/09/27 04:02:56;;;;;;;7.63;5.00;;;19.80;59.80;;;;;;5075172;28;20020;-64
2023/09/27 04:05:25;;;;;;;9.23;4.90;;;19.80;59.90;;;;;;5075364;28;20027;-67
2023/09/27 04:07:51;;;;;;;8.15;4.60;;;19.80;59.90;;;;;;5075391;28;20127;-66
2023/09/27 04:10:19;;;;;;;7.53;4.72;;;19.80;59.90;;;;;;5074160;28;20135;-65
2023/09/27 04:12:45;;;;;;;7.28;4.95;;;19.80;59.90;;;;;;5075368;28;20387;-66
2023/09/27 04:15:11;;;;;;;8.23;5.00;;;19.80;60.00;;;;;;5075258;28;20464;-63
2023/09/27 04:17:38;;;;;;;8.82;4.63;;;19.70;60.00;;;;;;5074434;28;20048;-65
2023/09/27 04:20:18;;;;;;;8.80;4.95;;;19.70;60.20;;;;;;5074976;28;20036;-67
2023/09/27 04:22:46;;;;;;;9.23;4.80;;;19.70;60.30;;;;;;5074098;28;20047;-66
2023/09/27 04:25:14;;;;;;;7.20;4.60;;;19.70;60.40;;;;;;5074808;28;20036;-66
2023/09/27 04:27:46;;;;;;;8.70;5.40;;;19.60;60.30;;;;;;5074904;28;20028;-65
2023/09/27 04:30:18;;;;;;;7.95;5.18;;;19.60;60.50;;;;;;5074037;28;20032;-67
2023/09/27 04:32:47;;;;;;;8.05;5.20;;;19.60;60.40;;;;;;5074828;28;20033;-66
2023/09/27 04:35:13;;;;;;;9.90;5.20;;;19.60;60.40;;;;;;5076728;28;20064;-66
2023/09/27 04:37:40;;;;;;;9.05;5.03;;;19.60;60.50;;;;;;5078810;28;20029;-66
2023/09/27 04:40:14;;;;;;;8.75;4.90;;;19.60;60.60;;;;;;5078861;28;20032;-65
2023/09/27 04:42:44;;;;;;;9.27;5.13;;;19.60;60.40;;;;;;5077634;28;20035;-66
2023/09/27 04:45:12;;;;;;;7.97;5.03;;;19.60;60.40;;;;;;5077525;28;20029;-66
2023/09/27 04:47:40;;;;;;;9.35;5.15;;;19.60;60.40;;;;;;5078379;28;20031;-64
2023/09/27 04:50:09;;;;;;;10.10;5.20;;;19.60;60.60;;;;;;5078383;28;20077;-65
2023/09/27 04:52:36;;;;;;;9.25;4.97;;;19.50;60.50;;;;;;5077416;28;20373;-68
2023/09/27 04:55:02;;;;;;;8.32;4.82;;;19.50;60.50;;;;;;5078520;28;20063;-65
2023/09/27 04:57:28;;;;;;;12.32;5.45;;;19.60;60.50;;;;;;5078221;28;20462;-65
2023/09/27 04:59:54;;;;;;;7.75;5.15;;;19.50;60.50;;;;;;5078768;28;20123;-67
2023/09/27 05:02:20;;;;;;;9.05;5.28;;;19.50;60.40;;;;;;5077219;28;20024;-67
2023/09/27 05:04:47;;;;;;;12.30;5.50;;;19.60;60.40;;;;;;5078022;28;20429;-67
2023/09/27 05:07:20;;;;;;;7.90;4.93;;;19.50;60.40;;;;;;5078631;28;20024;-68
2023/09/27 05:09:48;;;;;;;10.10;5.47;;;19.50;60.40;;;;;;5078665;28;20032;-66
2023/09/27 05:12:17;;;;;;;9.35;5.10;;;19.60;60.40;;;;;;5078569;28;20059;-68
2023/09/27 05:14:43;;;;;;;9.00;5.20;;;19.60;60.30;;;;;;5077909;28;20099;-66
2023/09/27 05:17:10;;;;;;;9.57;5.57;;;19.60;60.20;;;;;;5078418;28;20024;-65
2023/09/27 05:19:36;;;;;;;11.77;5.32;;;19.60;60.20;;;;;;5077890;28;20024;-64
2023/09/27 05:22:02;;;;;;;10.68;4.90;;;19.70;60.10;;;;;;5076913;28;20048;-67
2023/09/27 05:24:28;;;;;;;8.05;5.60;;;19.70;59.90;;;;;;5077717;28;20040;-67
2023/09/27 05:26:57;;;;;;;10.23;5.00;;;19.80;59.80;;;;;;5077743;28;20142;-69
2023/09/27 05:29:24;;;;;;;10.13;5.10;;;19.80;59.70;;;;;;5076666;28;20063;-65
2023/09/27 05:31:49;;;;;;;9.77;5.43;;;19.90;59.60;;;;;;5077661;28;20053;-67
2023/09/27 05:34:16;;;;;;;7.97;5.35;;;20.00;59.50;;;;;;5077967;28;20040;-65
2023/09/27 05:36:42;;;;;;;9.25;5.10;;;20.10;58.90;;;;;;5077255;28;20087;-68
2023/09/27 05:39:09;;;;;;;10.52;5.53;;;20.30;59.00;;;;;;5077487;28;20437;-69
2023/09/27 05:41:38;;;;;;;9.13;5.18;;;20.40;58.90;;;;;;5077407;28;20349;-68
2023/09/27 05:44:04;;;;;;;9.73;5.07;;;20.60;58.70;;;;;;5077618;28;20025;-68
2023/09/27 05:46:32;;;;;;;8.98;4.72;;;20.90;58.40;;;;;;5076954;28;20056;-67
2023/09/27 05:49:01;;;;;;;9.65;5.05;;;21.20;58.40;;;;;;5077607;28;20036;-66
2023/09/27 05:51:30;;;;;;;8.23;5.00;;;21.40;57.60;;;;;;5077237;28;20151;-64
2023/09/27 05:53:58;;;;;;;10.77;5.18;;;21.70;57.20;;;;;;5076111;28;20028;-66
2023/09/27 05:56:24;;;;;;;12.00;5.10;;;21.90;56.50;;;;;;5076945;28;20032;-66
2023/09/27 05:58:53;;;;;;;9.00;5.13;;;22.20;55.60;;;;;;5077428;28;20104;-65
2023/09/27 06:01:20;;;;;;;9.75;5.65;;;22.40;55.10;;;;;;5076989;28;20017;-66
2023/09/27 06:03:47;;;;;;;10.48;5.82;;;22.70;54.50;;;;;;5077516;28;20422;-67
2023/09/27 06:06:13;;;;;;;9.07;5.10;;;22.90;53.80;;;;;;5076948;28;20348;-66
2023/09/27 06:08:40;;;;;;;7.80;4.95;;;23.20;53.60;;;;;;5076949;28;20024;-67
2023/09/27 06:11:07;;;;;;;8.05;4.70;;;23.40;53.30;;;;;;5076067;28;20028;-65
2023/09/27 06:13:37;;;;;;;11.98;5.22;;;23.60;53.00;;;;;;5077129;28;20040;-67
2023/09/27 06:16:11;;;;;;;9.75;4.93;;;23.90;52.30;;;;;;5076591;28;20327;-68
2023/09/27 06:18:37;;;;;;;9.90;4.88;;;24.00;52.40;;;;;;5077053;28;20017;-68
2023/09/27 06:21:04;;;;;;;11.15;5.30;;;24.20;51.50;;;;;;5077217;28;20021;-67
2023/09/27 06:23:30;;;;;;;7.28;5.10;;;24.40;51.00;;;;;;5077208;28;20024;-68
2023/09/27 06:25:56;;;;;;;9.80;5.10;;;24.60;50.60;;;;;;5076545;28;20442;-66
2023/09/27 06:28:22;;;;;;;8.57;5.00;;;24.80;49.70;;;;;;5076836;28;20067;-65
2023/09/27 06:30:48;;;;;;;8.02;4.90;;;24.90;49.40;;;;;;5075492;28;20021;-66
2023/09/27 06:33:14;;;;;;;9.63;5.15;;;25.00;48.80;;;;;;5076698;28;20063;-68
2023/09/27 06:35:45;;;;;;;9.32;4.68;;;25.20;48.70;;;;;;5076055;28;20048;-69
2023/09/27 06:38:11;;;;;;;7.25;4.95;;;25.30;48.40;;;;;;5075426;28;20350;-67
2023/09/27 06:40:37;;;;;;;10.27;4.57;;;25.40;47.60;;;;;;5076302;28;20021;-65
2023/09/27 06:43:05;;;;;;;7.28;4.65;;;25.20;47.00;;;;;;5076207;28;20029;-64
2023/09/27 06:45:32;;;;;;;10.60;4.88;;;25.20;47.60;;;;;;5076361;28;20025;-64
2023/09/27 06:47:58;;;;;;;11.57;4.75;;;25.20;47.60;;;;;;5076054;28;20353;-66
2023/09/27 06:50:24;;;;;;;9.45;4.40;;;25.20;47.80;;;;;;5076016;28;20452;-66
2023/09/27 06:52:55;;;;;;;9.15;4.70;;;25.20;48.10;;;;;;5077097;28;20029;-68
2023/09/27 06:55:22;;;;;;;9.52;4.43;;;25.30;47.80;;;;;;5076096;28;20097;-65
2023/09/27 06:57:52;;;;;;;8.95;5.03;;;25.30;48.00;;;;;;5075687;28;20430;-66
2023/09/27 07:00:24;;;;;;;11.82;4.72;;;25.40;47.90;;;;;;5076410;28;20028;-68
2023/09/27 07:02:51;;;;;;;13.52;5.10;;;25.40;47.50;;;;;;5075722;28;20025;-66
2023/09/27 07:05:21;;;;;;;8.07;4.65;;;25.50;47.60;;;;;;5074757;28;20020;-67
2023/09/27 07:07:51;;;;;;;10.27;5.20;;;25.60;47.60;;;;;;5074806;28;20028;-67
2023/09/27 07:10:17;;;;;;;9.20;4.63;;;25.60;47.20;;;;;;5074930;28;20070;-67
2023/09/27 07:12:43;;;;;;;7.60;4.32;;;25.60;47.30;;;;;;5075964;28;20358;-68
2023/09/27 07:15:12;;;;;;;9.93;4.90;;;25.70;47.30;;;;;;5075911;28;20052;-69
2023/09/27 07:17:47;;;;;;;9.85;4.63;;;25.70;47.10;;;;;;5075767;28;20111;-69
2023/09/27 07:20:26;;;;;;;11.23;4.70;;;25.70;46.70;;;;;;5076147;28;20016;-68
2023/09/27 07:22:54;;;;;;;8.40;4.78;;;25.70;46.40;;;;;;5075559;28;20036;-66
2023/09/27 07:25:21;;;;;;;8.85;4.40;;;25.70;46.50;;;;;;5074548;28;20017;-67
2023/09/27 07:27:48;;;;;;;9.68;4.88;;;25.70;46.80;;;;;;5074558;28;20097;-69
2023/09/27 07:30:23;;;;;;;7.07;4.70;;;25.70;46.60;;;;;;5075732;28;20027;-67
2023/09/27 07:32:56;;;;;;;12.13;5.57;;;25.70;46.80;;;;;;5075744;28;20452;-68
2023/09/27 07:35:27;;;;;;;9.95;5.15;;;25.70;46.60;;;;;;5075127;28;20053;-63
2023/09/27 07:37:55;;;;;;;9.93;5.10;;;25.80;46.70;;;;;;5075585;28;20039;-68
2023/09/27 07:40:23;;;;;;;9.60;5.18;;;25.80;46.60;;;;;;5075258;28;20089;-66
2023/09/27 07:42:50;;;;;;;10.30;5.10;;;25.90;46.70;;;;;;5075295;28;20024;-66
2023/09/27 07:45:26;;;;;;;9.30;5.20;;;26.00;46.10;;;;;;5075488;28;20021;-65
2023/09/27 07:47:54;;;;;;;6.75;4.50;;;26.00;46.20;;;;;;5075253;28;20037;-68
2023/09/27 07:50:21;;;;;;;10.05;5.25;;;26.10;46.30;;;;;;5075264;28;20029;-65
2023/09/27 07:52:48;;;;;;;12.45;5.30;;;26.20;45.80;;;;;;5075224;28;20451;-67
2023/09/27 07:55:17;;;;;;;11.45;4.97;;;26.30;46.00;;;;;;5075361;28;20035;-66
2023/09/27 07:57:46;;;;;;;8.93;4.70;;;26.30;46.00;;;;;;5075125;28;20025;-65
2023/09/27 08:00:16;;;;;;;8.68;4.78;;;26.40;46.00;;;;;;5075108;28;20058;-64
2023/09/27 08:02:45;;;;;;;11.82;4.97;;;26.50;46.00;;;;;;5075146;28;20364;-66
2023/09/27 08:05:16;;;;;;;10.73;4.53;;;26.60;45.80;;;;;;5074956;28;20024;-67
2023/09/27 08:07:44;;;;;;;8.70;4.55;;;26.60;45.50;;;;;;5075428;28;20036;-64
2023/09/27 08:10:10;;;;;;;9.40;4.68;;;26.70;45.50;;;;;;5077784;28;20036;-64
2023/09/27 08:12:38;;;;;;;8.90;4.88;;;26.70;45.40;;;;;;5078737;28;20134;-67
2023/09/27 08:15:06;;;;;;;9.57;5.00;;;26.70;45.50;;;;;;5084299;28;20066;-65
2023/09/27 08:17:33;;;;;;;10.35;4.53;;;26.80;45.50;;;;;;5079179;28;20063;-64
2023/09/27 08:20:12;;;;;;;11.30;4.72;;;26.90;44.80;;;;;;5096593;28;20056;-68
2023/09/27 08:22:39;;;;;;;10.25;4.38;;;26.90;45.00;;;;;;5099212;28;20020;-65
2023/09/27 08:25:09;;;;;;;8.93;4.82;;;26.90;45.10;;;;;;5099017;28;20032;-67
2023/09/27 08:27:36;;;;;;;9.98;4.63;;;27.00;44.70;;;;;;5097084;28;20115;-66
2023/09/27 08:30:05;;;;;;;6.53;4.30;;;26.90;44.90;;;;;;5076574;28;20137;-65
2023/09/27 08:32:32;;;;;;;8.75;5.03;;;26.90;45.20;;;;;;5076016;28;20025;-66
2023/09/27 08:34:58;;;;;;;10.20;4.55;;;27.00;45.30;;;;;;5076290;28;20529;-66
2023/09/27 08:37:24;;;;;;;10.23;5.05;;;27.00;45.30;;;;;;5076631;28;20029;-64
2023/09/27 08:39:50;;;;;;;11.65;4.70;;;27.10;44.10;;;;;;5076602;28;20413;-64
2023/09/27 08:42:17;;;;;;;7.75;4.47;;;27.10;43.10;;;;;;5076327;28;20103;-66
2023/09/27 08:44:44;;;;;;;8.00;4.18;;;27.10;40.90;;;;;;5076314;28;20403;-67
2023/09/27 08:47:11;;;;;;;9.52;4.53;;;27.20;41.00;;;;;;5076834;28;20024;-64
2023/09/27 08:49:37;;;;;;;7.05;4.80;;;27.20;41.50;;;;;;5078279;28;20107;-65
2023/09/27 08:52:06;;;;;;;7.53;4.40;;;27.20;40.50;;;;;;5077560;28;20037;-65
2023/09/27 08:54:32;;;;;;;8.52;4.50;;;27.20;40.10;;;;;;5078552;28;20033;-68
2023/09/27 08:56:59;;;;;;;10.98;4.30;;;27.20;39.10;;;;;;5077267;28;20131;-67
2023/09/27 08:59:25;;;;;;;10.70;4.55;;;27.20;39.30;;;;;;5078203;28;20442;-65
2023/09/27 09:01:53;;;;;;;9.10;4.55;;;27.20;39.40;;;;;;5078492;28;20025;-66
2023/09/27 09:04:19;;;;;;;8.80;4.47;;;27.20;39.40;;;;;;5077149;28;20058;-65
2023/09/27 09:06:45;;;;;;;10.95;4.60;;;27.20;39.80;;;;;;5077183;28;20024;-65
2023/09/27 09:09:11;;;;;;;15.80;4.50;;;27.20;38.60;;;;;;5077478;28;20121;-67
2023/09/27 09:11:47;;;;;;;7.35;4.30;;;27.20;39.00;;;;;;5078310;28;20029;-68
2023/09/27 09:14:17;;;;;;;7.60;4.45;;;27.20;40.20;;;;;;5078196;28;20108;-66
2023/09/27 09:16:53;;;;;;;10.55;4.40;;;27.20;39.80;;;;;;5076914;28;20029;-68
2023/09/27 09:19:22;;;;;;;7.80;4.60;;;27.30;38.50;;;;;;5077846;28;20052;-62
2023/09/27 09:21:56;;;;;;;8.48;4.20;;;27.40;39.90;;;;;;5077243;28;20029;-66
2023/09/27 09:24:22;;;;;;;6.70;4.40;;;27.40;37.60;;;;;;5077367;28;20515;-66
2023/09/27 09:27:07;;;;;;;8.52;4.60;;;27.40;37.50;;;;;;5078072;28;20453;-67
2023/09/27 09:29:54;;;;;;;12.85;4.75;;;27.50;38.50;;;;;;5078081;28;20024;-65
2023/09/27 09:32:22;;;;;;;9.70;4.30;;;27.50;37.90;;;;;;5077388;28;20035;-64
2023/09/27 09:34:53;;;;;;;8.75;4.60;;;27.50;38.30;;;;;;5077274;28;20033;-65
2023/09/27 09:37:31;;;;;;;9.50;4.63;;;27.50;38.90;;;;;;5077839;28;20033;-65
2023/09/27 09:40:14;;;;;;;8.40;4.18;;;27.60;37.50;;;;;;5077532;28;20028;-65
2023/09/27 09:42:42;;;;;;;8.63;4.13;;;27.40;36.50;;;;;;5076620;28;20036;-66
2023/09/27 09:45:12;;;;;;;12.23;4.68;;;27.40;37.10;;;;;;5077403;28;20094;-63
2023/09/27 09:47:41;;;;;;;7.47;4.30;;;27.50;36.50;;;;;;5077662;28;20098;-66
2023/09/27 09:50:16;;;;;;;9.65;4.40;;;27.50;36.90;;;;;;5077398;28;20036;-65
2023/09/27 09:52:47;;;;;;;12.13;4.68;;;27.50;38.00;;;;;;5076361;28;20474;-66
2023/09/27 09:55:19;;;;;;;11.18;4.20;;;27.60;36.90;;;;;;5076195;28;20044;-64
2023/09/27 09:57:46;;;;;;;11.07;4.70;;;27.50;36.40;;;;;;5076177;28;20024;-63
2023/09/27 10:00:30;;;;;;;10.10;4.60;;;27.50;36.90;;;;;;5077160;28;20441;-65
2023/09/27 10:03:07;;;;;;;13.68;4.70;;;27.60;37.40;;;;;;5077643;28;20021;-64
2023/09/27 10:05:39;;;;;;;8.93;4.53;;;27.70;37.50;;;;;;5077237;28;20086;-68
2023/09/27 10:08:06;;;;;;;11.35;4.68;;;27.60;36.40;;;;;;5076981;28;20024;-66
2023/09/27 10:10:33;;;;;;;11.70;5.03;;;27.60;37.00;;;;;;5076960;28;20028;-68
2023/09/27 10:13:01;;;;;;;10.00;4.50;;;27.60;37.50;;;;;;5076051;28;20020;-67
2023/09/27 10:15:29;;;;;;;8.63;4.50;;;27.60;38.20;;;;;;5075737;28;20028;-63
2023/09/27 10:18:24;;;;;;;9.15;4.60;;;27.70;37.10;;;;;;5076303;28;20032;-64
2023/09/27 10:21:02;;;;;;;10.68;4.55;;;27.80;37.90;;;;;;5075600;28;20441;-64
2023/09/27 10:23:46;;;;;;;11.85;4.43;;;27.90;37.40;;;;;;5077242;28;20021;-67
2023/09/27 10:26:34;;;;;;;9.10;4.35;;;27.90;38.40;;;;;;5076535;28;20039;-67
2023/09/27 10:29:18;;;;;;;10.48;4.15;;;27.90;36.70;;;;;;5077154;28;20361;-64
2023/09/27 10:31:56;;;;;;;10.05;4.15;;;27.90;37.70;;;;;;5077095;28;20523;-64
2023/09/27 10:34:28;;;;;;;9.18;4.60;;;27.90;38.00;;;;;;5076974;28;20393;-64
2023/09/27 10:36:55;;;;;;;9.95;4.18;;;27.90;37.40;;;;;;5076108;28;20053;-65
2023/09/27 10:39:21;;;;;;;7.40;4.55;;;27.90;38.10;;;;;;5076640;28;20025;-64
2023/09/27 10:41:48;;;;;;;7.90;4.30;;;27.90;37.10;;;;;;5076586;28;20028;-66
2023/09/27 10:44:36;;;;;;;11.23;5.03;;;27.90;38.10;;;;;;5076221;28;20017;-65
2023/09/27 10:47:04;;;;;;;9.35;4.63;;;28.00;37.40;;;;;;5076152;28;20033;-63
2023/09/27 10:49:38;;;;;;;8.77;4.25;;;28.00;37.60;;;;;;5075499;28;20452;-64
2023/09/27 10:52:15;;;;;;;14.52;4.57;;;28.00;37.20;;;;;;5075173;28;20074;-66
2023/09/27 10:54:42;;;;;;;11.40;4.78;;;28.00;37.50;;;;;;5075439;28;20346;-65
2023/09/27 10:57:08;;;;;;;11.35;4.00;;;28.10;37.40;;;;;;5074921;28;20039;-65
2023/09/27 10:59:35;;;;;;;9.40;4.40;;;28.10;37.10;;;;;;5076244;28;20040;-65
2023/09/27 11:02:03;;;;;;;13.02;4.30;;;28.10;36.60;;;;;;5075921;28;20027;-64
2023/09/27 11:04:31;;;;;;;15.30;4.78;;;28.10;37.30;;;;;;5075760;28;20028;-66
2023/09/27 11:06:57;;;;;;;15.25;4.40;;;28.00;35.70;;;;;;5075742;28;20070;-63
2023/09/27 11:09:24;;;;;;;9.70;4.30;;;28.10;36.20;;;;;;5075763;28;20036;-62
2023/09/27 11:11:55;;;;;;;14.60;4.60;;;28.10;34.50;;;;;;5074783;28;20032;-63
2023/09/27 11:14:34;;;;;;;12.65;4.47;;;28.00;34.60;;;;;;5075593;28;20074;-61
2023/09/27 11:17:16;;;;;;;7.38;4.03;;;28.00;35.80;;;;;;5076147;28;20085;-63
2023/09/27 11:19:42;;;;;;;11.07;4.13;;;28.10;34.90;;;;;;5074704;28;20024;-66
2023/09/27 11:22:09;;;;;;;9.38;4.47;;;28.10;35.80;;;;;;5074676;28;20024;-67
2023/09/27 11:24:39;;;;;;;9.60;4.28;;;28.30;35.70;;;;;;5075537;28;20032;-65
2023/09/27 11:27:09;;;;;;;10.13;4.25;;;28.40;35.00;;;;;;5074990;28;20089;-65
2023/09/27 11:29:35;;;;;;;9.30;4.28;;;28.40;35.20;;;;;;5076090;28;20028;-67
2023/09/27 11:32:02;;;;;;;12.20;4.50;;;28.40;34.90;;;;;;5075808;28;20099;-66
2023/09/27 11:34:30;;;;;;;9.32;4.10;;;28.40;35.00;;;;;;5075428;28;20029;-64
2023/09/27 11:37:02;;;;;;;10.90;4.05;;;28.30;35.00;;;;;;5075065;28;20052;-63
2023/09/27 11:39:49;;;;;;;12.60;4.45;;;28.30;35.00;;;;;;5075418;28;20365;-67
2023/09/27 11:42:21;;;;;;;12.15;4.30;;;28.40;34.70;;;;;;5075370;28;20028;-67
2023/09/27 11:45:08;;;;;;;10.15;4.13;;;28.40;35.10;;;;;;5074916;28;20464;-65
2023/09/27 11:47:50;;;;;;;10.30;3.95;;;28.40;34.50;;;;;;5075295;28;20104;-65
2023/09/27 11:50:18;;;;;;;11.70;4.23;;;28.40;34.70;;;;;;5075620;28;20029;-62
2023/09/27 11:52:46;;;;;;;11.00;4.55;;;28.40;35.00;;;;;;5075304;28;20056;-65
2023/09/27 11:55:16;;;;;;;15.63;4.38;;;28.40;34.40;;;;;;5075463;28;20024;-63
2023/09/27 11:57:43;;;;;;;15.02;4.60;;;28.40;35.70;;;;;;5075719;28;20107;-66
2023/09/27 12:00:13;;;;;;;8.20;4.35;;;28.40;34.30;;;;;;5075231;28;20067;-65
2023/09/27 12:02:39;;;;;;;7.82;3.95;;;28.40;34.40;;;;;;5075516;28;20112;-66
2023/09/27 12:05:06;;;;;;;9.52;4.07;;;28.40;33.90;;;;;;5075135;28;20043;-63
2023/09/27 12:07:32;;;;;;;9.45;4.22;;;28.40;34.10;;;;;;5075420;28;20111;-62
2023/09/27 12:09:58;;;;;;;11.13;4.63;;;28.40;34.30;;;;;;5057484;28;20024;-62
2023/09/27 12:12:25;;;;;;;10.57;4.00;;;28.40;35.10;;;;;;5075402;28;20473;-63
2023/09/27 12:14:51;;;;;;;11.85;3.90;;;28.50;34.80;;;;;;5075032;28;20074;-64
2023/09/27 12:17:17;;;;;;;10.52;4.30;;;28.50;35.30;;;;;;5075268;28;20349;-65
2023/09/27 12:19:45;;;;;;;12.27;4.57;;;28.50;34.70;;;;;;5074475;28;20021;-64
2023/09/27 12:22:14;;;;;;;11.70;4.20;;;28.60;34.30;;;;;;5074988;28;20025;-66
2023/09/27 12:24:41;;;;;;;9.85;4.15;;;28.60;34.70;;;;;;5074876;28;20055;-66
2023/09/27 12:27:07;;;;;;;11.30;4.47;;;28.60;34.60;;;;;;5074958;28;20025;-66
2023/09/27 12:29:33;;;;;;;9.25;4.40;;;28.70;35.00;;;;;;5074961;28;20027;-67
2023/09/27 12:32:00;;;;;;;7.35;4.10;;;28.80;34.30;;;;;;5075220;28;20028;-67
2023/09/27 12:34:28;;;;;;;11.05;4.30;;;28.60;33.30;;;;;;5074795;28;20039;-66
2023/09/27 12:36:54;;;;;;;14.35;4.30;;;28.60;33.90;;;;;;5074937;28;20106;-65
2023/09/27 12:39:21;;;;;;;8.43;4.20;;;28.60;33.80;;;;;;5075139;28;20053;-65
2023/09/27 12:41:47;;;;;;;7.78;4.07;;;28.60;34.10;;;;;;5074775;28;20513;-66
2023/09/27 12:44:13;;;;;;;13.05;4.72;;;28.70;33.60;;;;;;5074775;28;20044;-67
2023/09/27 12:46:39;;;;;;;8.98;3.85;;;28.70;33.10;;;;;;5073839;28;20043;-68
2023/09/27 12:49:05;;;;;;;8.75;3.90;;;28.70;34.40;;;;;;5074787;28;20078;-64